sensor_id;sensor_type;location;lat;lon;timestamp;P1;durP1;ratioP1;P2;durP2;ratioP2
15385;SDS011;7791;47.246;9.648;2023-04-24T00:00:29;1.07;;;0.40;;
15385;SDS011;7791;47.246;9.648;2023-04-24T00:10:55;0.20;;;0.20;;
15385;SDS011;7791;47.246;9.648;2023-04-24T00:13:34;0.10;;;0.10;;
15385;SDS011;7791;47.246;9.648;2023-04-24T00:16:13;0.20;;;0.20;;
15385;SDS011;7791;47.246;9.648;2023-04-24T00:18:50;0.33;;;0.17;;
15385;SDS011;7791;47.246;9.648;2023-04-24T00:21:19;0.23;;;0.23;;
15385;SDS011;7791;47.246;9.648;2023-04-24T00:24:05;0.20;;;0.10;;
15385;SDS011;7791;47.246;9.648;2023-04-24T00:26:35;0.40;;;0.20;;
15385;SDS011;7791;47.246;9.648;2023-04-24T00:29:03;0.63;;;0.40;;
15385;SDS011;7791;47.246;9.648;2023-04-24T00:31:36;1.20;;;0.60;;
15385;SDS011;7791;47.246;9.648;2023-04-24T00:34:09;0.60;;;0.20;;
15385;SDS011;7791;47.246;9.648;2023-04-24T00:36:44;0.80;;;0.20;;
15385;SDS011;7791;47.246;9.648;2023-04-24T00:39:19;0.60;;;0.27;;
15385;SDS011;7791;47.246;9.648;2023-04-24T00:41:54;0.10;;;0.10;;
15385;SDS011;7791;47.246;9.648;2023-04-24T00:44:57;0.70;;;0.27;;
15385;SDS011;7791;47.246;9.648;2023-04-24T00:47:32;0.53;;;0.30;;
15385;SDS011;7791;47.246;9.648;2023-04-24T00:50:11;0.60;;;0.30;;
15385;SDS011;7791;47.246;9.648;2023-04-24T00:52:46;0.17;;;0.10;;
15385;SDS011;7791;47.246;9.648;2023-04-24T00:55:18;0.60;;;0.20;;
15385;SDS011;7791;47.246;9.648;2023-04-24T00:58:10;0.50;;;0.40;;
15385;SDS011;7791;47.246;9.648;2023-04-24T01:00:43;2.73;;;0.30;;
15385;SDS011;7791;47.246;9.648;2023-04-24T01:03:14;0.57;;;0.30;;
15385;SDS011;7791;47.246;9.648;2023-04-24T01:05:54;1.07;;;0.27;;
15385;SDS011;7791;47.246;9.648;2023-04-24T01:08:29;3.60;;;0.70;;
15385;SDS011;7791;47.246;9.648;2023-04-24T01:11:21;0.70;;;0.30;;
15385;SDS011;7791;47.246;9.648;2023-04-24T01:14:09;0.57;;;0.30;;
15385;SDS011;7791;47.246;9.648;2023-04-24T01:16:47;1.37;;;0.30;;
15385;SDS011;7791;47.246;9.648;2023-04-24T01:19:26;0.40;;;0.30;;
15385;SDS011;7791;47.246;9.648;2023-04-24T01:24:40;0.70;;;0.30;;
15385;SDS011;7791;47.246;9.648;2023-04-24T01:27:14;0.80;;;0.40;;
15385;SDS011;7791;47.246;9.648;2023-04-24T01:29:50;0.33;;;0.30;;
15385;SDS011;7791;47.246;9.648;2023-04-24T01:32:27;1.53;;;0.30;;
15385;SDS011;7791;47.246;9.648;2023-04-24T01:35:00;0.40;;;0.30;;
15385;SDS011;7791;47.246;9.648;2023-04-24T01:37:32;0.40;;;0.30;;
15385;SDS011;7791;47.246;9.648;2023-04-24T01:40:04;1.60;;;0.30;;
15385;SDS011;7791;47.246;9.648;2023-04-24T01:42:32;1.43;;;0.20;;
15385;SDS011;7791;47.246;9.648;2023-04-24T01:45:06;0.33;;;0.30;;
15385;SDS011;7791;47.246;9.648;2023-04-24T01:47:56;1.23;;;0.30;;
15385;SDS011;7791;47.246;9.648;2023-04-24T01:50:29;1.97;;;0.33;;
15385;SDS011;7791;47.246;9.648;2023-04-24T01:56:05;0.40;;;0.40;;
15385;SDS011;7791;47.246;9.648;2023-04-24T01:58:40;0.50;;;0.30;;
15385;SDS011;7791;47.246;9.648;2023-04-24T02:01:08;0.40;;;0.30;;
15385;SDS011;7791;47.246;9.648;2023-04-24T02:03:47;0.87;;;0.33;;
15385;SDS011;7791;47.246;9.648;2023-04-24T02:06:22;2.40;;;0.40;;
15385;SDS011;7791;47.246;9.648;2023-04-24T02:09:07;1.00;;;0.43;;
15385;SDS011;7791;47.246;9.648;2023-04-24T02:11:40;0.60;;;0.40;;
15385;SDS011;7791;47.246;9.648;2023-04-24T02:14:12;0.73;;;0.40;;
15385;SDS011;7791;47.246;9.648;2023-04-24T02:16:51;1.70;;;0.40;;
15385;SDS011;7791;47.246;9.648;2023-04-24T02:19:23;1.10;;;0.50;;
15385;SDS011;7791;47.246;9.648;2023-04-24T02:21:54;1.77;;;0.60;;
15385;SDS011;7791;47.246;9.648;2023-04-24T02:24:24;0.63;;;0.40;;
15385;SDS011;7791;47.246;9.648;2023-04-24T02:27:00;2.27;;;0.50;;
15385;SDS011;7791;47.246;9.648;2023-04-24T02:29:32;2.17;;;0.40;;
15385;SDS011;7791;47.246;9.648;2023-04-24T02:32:08;2.13;;;0.40;;
15385;SDS011;7791;47.246;9.648;2023-04-24T02:34:48;2.03;;;0.47;;
15385;SDS011;7791;47.246;9.648;2023-04-24T02:37:17;1.67;;;0.53;;
15385;SDS011;7791;47.246;9.648;2023-04-24T02:39:46;0.70;;;0.30;;
15385;SDS011;7791;47.246;9.648;2023-04-24T02:42:28;2.00;;;0.67;;
15385;SDS011;7791;47.246;9.648;2023-04-24T02:45:02;1.70;;;0.40;;
15385;SDS011;7791;47.246;9.648;2023-04-24T02:47:33;1.00;;;0.60;;
15385;SDS011;7791;47.246;9.648;2023-04-24T02:50:02;0.83;;;0.30;;
15385;SDS011;7791;47.246;9.648;2023-04-24T02:52:38;0.50;;;0.40;;
15385;SDS011;7791;47.246;9.648;2023-04-24T02:55:12;2.43;;;0.60;;
15385;SDS011;7791;47.246;9.648;2023-04-24T03:03:23;0.40;;;0.30;;
15385;SDS011;7791;47.246;9.648;2023-04-24T03:05:59;1.87;;;0.60;;
15385;SDS011;7791;47.246;9.648;2023-04-24T03:08:44;1.10;;;0.47;;
15385;SDS011;7791;47.246;9.648;2023-04-24T03:11:14;4.07;;;1.67;;
15385;SDS011;7791;47.246;9.648;2023-04-24T03:16:35;2.07;;;0.50;;
15385;SDS011;7791;47.246;9.648;2023-04-24T03:19:10;1.83;;;0.60;;
15385;SDS011;7791;47.246;9.648;2023-04-24T03:21:52;0.50;;;0.40;;
15385;SDS011;7791;47.246;9.648;2023-04-24T03:27:08;0.77;;;0.50;;
15385;SDS011;7791;47.246;9.648;2023-04-24T03:29:54;1.20;;;0.43;;
15385;SDS011;7791;47.246;9.648;2023-04-24T03:32:21;0.50;;;0.50;;
15385;SDS011;7791;47.246;9.648;2023-04-24T03:34:57;0.80;;;0.60;;
15385;SDS011;7791;47.246;9.648;2023-04-24T03:37:32;2.00;;;0.40;;
15385;SDS011;7791;47.246;9.648;2023-04-24T03:40:00;0.70;;;0.50;;
15385;SDS011;7791;47.246;9.648;2023-04-24T03:42:39;1.10;;;1.00;;
15385;SDS011;7791;47.246;9.648;2023-04-24T03:45:17;3.47;;;2.60;;
15385;SDS011;7791;47.246;9.648;2023-04-24T03:47:54;6.70;;;4.23;;
15385;SDS011;7791;47.246;9.648;2023-04-24T03:50:33;9.93;;;5.10;;
15385;SDS011;7791;47.246;9.648;2023-04-24T03:58:49;3.43;;;2.50;;
15385;SDS011;7791;47.246;9.648;2023-04-24T04:01:24;4.47;;;2.60;;
15385;SDS011;7791;47.246;9.648;2023-04-24T04:04:08;4.83;;;2.80;;
15385;SDS011;7791;47.246;9.648;2023-04-24T04:06:45;3.13;;;2.10;;
15385;SDS011;7791;47.246;9.648;2023-04-24T04:09:15;2.70;;;1.93;;
15385;SDS011;7791;47.246;9.648;2023-04-24T04:14:36;3.13;;;1.47;;
15385;SDS011;7791;47.246;9.648;2023-04-24T04:17:06;0.80;;;0.80;;
15385;SDS011;7791;47.246;9.648;2023-04-24T04:19:40;1.60;;;1.10;;
15385;SDS011;7791;47.246;9.648;2023-04-24T04:24:52;2.30;;;1.30;;
15385;SDS011;7791;47.246;9.648;2023-04-24T04:27:37;1.60;;;1.20;;
15385;SDS011;7791;47.246;9.648;2023-04-24T04:30:03;1.50;;;1.10;;
15385;SDS011;7791;47.246;9.648;2023-04-24T04:32:44;1.20;;;0.80;;
15385;SDS011;7791;47.246;9.648;2023-04-24T04:35:17;1.20;;;0.80;;
15385;SDS011;7791;47.246;9.648;2023-04-24T04:37:48;1.10;;;0.90;;
15385;SDS011;7791;47.246;9.648;2023-04-24T04:40:20;2.40;;;0.90;;
15385;SDS011;7791;47.246;9.648;2023-04-24T04:45:54;1.10;;;0.90;;
15385;SDS011;7791;47.246;9.648;2023-04-24T04:48:34;2.33;;;1.40;;
15385;SDS011;7791;47.246;9.648;2023-04-24T04:51:10;3.07;;;1.50;;
15385;SDS011;7791;47.246;9.648;2023-04-24T04:54:01;2.17;;;1.20;;
15385;SDS011;7791;47.246;9.648;2023-04-24T04:56:48;1.93;;;1.03;;
15385;SDS011;7791;47.246;9.648;2023-04-24T04:59:28;1.50;;;0.87;;
15385;SDS011;7791;47.246;9.648;2023-04-24T05:01:57;1.47;;;0.87;;
15385;SDS011;7791;47.246;9.648;2023-04-24T05:04:40;1.17;;;0.80;;
15385;SDS011;7791;47.246;9.648;2023-04-24T05:07:19;1.20;;;1.00;;
15385;SDS011;7791;47.246;9.648;2023-04-24T05:09:51;3.63;;;1.10;;
15385;SDS011;7791;47.246;9.648;2023-04-24T05:12:24;1.73;;;0.97;;
15385;SDS011;7791;47.246;9.648;2023-04-24T05:14:58;3.23;;;1.00;;
15385;SDS011;7791;47.246;9.648;2023-04-24T05:17:27;3.00;;;1.20;;
15385;SDS011;7791;47.246;9.648;2023-04-24T05:28:47;1.67;;;1.00;;
15385;SDS011;7791;47.246;9.648;2023-04-24T05:31:26;1.93;;;1.20;;
15385;SDS011;7791;47.246;9.648;2023-04-24T05:33:56;3.43;;;1.20;;
15385;SDS011;7791;47.246;9.648;2023-04-24T05:36:26;1.93;;;1.00;;
15385;SDS011;7791;47.246;9.648;2023-04-24T05:38:59;4.37;;;1.20;;
15385;SDS011;7791;47.246;9.648;2023-04-24T05:41:33;2.53;;;0.93;;
15385;SDS011;7791;47.246;9.648;2023-04-24T05:44:19;1.30;;;1.10;;
15385;SDS011;7791;47.246;9.648;2023-04-24T05:46:53;2.33;;;0.90;;
15385;SDS011;7791;47.246;9.648;2023-04-24T05:49:30;2.13;;;0.90;;
15385;SDS011;7791;47.246;9.648;2023-04-24T05:52:03;2.43;;;1.00;;
15385;SDS011;7791;47.246;9.648;2023-04-24T05:54:35;2.20;;;0.77;;
15385;SDS011;7791;47.246;9.648;2023-04-24T05:57:09;2.43;;;1.10;;
15385;SDS011;7791;47.246;9.648;2023-04-24T05:59:50;2.30;;;1.00;;
15385;SDS011;7791;47.246;9.648;2023-04-24T06:02:34;0.70;;;0.60;;
15385;SDS011;7791;47.246;9.648;2023-04-24T06:05:01;1.40;;;0.70;;
15385;SDS011;7791;47.246;9.648;2023-04-24T06:07:32;1.63;;;0.60;;
15385;SDS011;7791;47.246;9.648;2023-04-24T06:10:07;1.50;;;0.73;;
15385;SDS011;7791;47.246;9.648;2023-04-24T06:12:43;1.70;;;1.10;;
15385;SDS011;7791;47.246;9.648;2023-04-24T06:15:17;1.80;;;0.83;;
15385;SDS011;7791;47.246;9.648;2023-04-24T06:18:16;3.07;;;1.20;;
15385;SDS011;7791;47.246;9.648;2023-04-24T06:20:53;3.50;;;1.40;;
15385;SDS011;7791;47.246;9.648;2023-04-24T06:23:32;1.60;;;1.20;;
15385;SDS011;7791;47.246;9.648;2023-04-24T06:26:32;3.83;;;1.30;;
15385;SDS011;7791;47.246;9.648;2023-04-24T06:29:18;3.87;;;1.37;;
15385;SDS011;7791;47.246;9.648;2023-04-24T06:31:59;2.57;;;1.20;;
15385;SDS011;7791;47.246;9.648;2023-04-24T06:34:38;1.80;;;0.90;;
15385;SDS011;7791;47.246;9.648;2023-04-24T06:37:11;1.50;;;0.80;;
15385;SDS011;7791;47.246;9.648;2023-04-24T06:39:54;1.20;;;0.80;;
15385;SDS011;7791;47.246;9.648;2023-04-24T06:42:33;1.00;;;0.80;;
15385;SDS011;7791;47.246;9.648;2023-04-24T06:45:10;2.67;;;0.90;;
15385;SDS011;7791;47.246;9.648;2023-04-24T06:47:39;1.50;;;1.00;;
15385;SDS011;7791;47.246;9.648;2023-04-24T06:50:15;2.33;;;1.00;;
15385;SDS011;7791;47.246;9.648;2023-04-24T06:53:01;1.00;;;0.90;;
15385;SDS011;7791;47.246;9.648;2023-04-24T06:55:37;1.90;;;1.03;;
15385;SDS011;7791;47.246;9.648;2023-04-24T06:58:15;2.03;;;1.00;;
15385;SDS011;7791;47.246;9.648;2023-04-24T07:00:47;1.50;;;0.90;;
15385;SDS011;7791;47.246;9.648;2023-04-24T07:03:29;2.23;;;1.00;;
15385;SDS011;7791;47.246;9.648;2023-04-24T07:05:59;2.23;;;0.90;;
15385;SDS011;7791;47.246;9.648;2023-04-24T07:08:38;1.93;;;1.57;;
15385;SDS011;7791;47.246;9.648;2023-04-24T07:11:13;4.40;;;2.30;;
15385;SDS011;7791;47.246;9.648;2023-04-24T07:13:49;3.63;;;2.20;;
15385;SDS011;7791;47.246;9.648;2023-04-24T07:16:22;2.63;;;1.30;;
15385;SDS011;7791;47.246;9.648;2023-04-24T07:18:50;2.10;;;1.00;;
15385;SDS011;7791;47.246;9.648;2023-04-24T07:21:23;4.60;;;0.87;;
15385;SDS011;7791;47.246;9.648;2023-04-24T07:23:56;1.87;;;0.93;;
15385;SDS011;7791;47.246;9.648;2023-04-24T07:26:26;5.03;;;1.10;;
15385;SDS011;7791;47.246;9.648;2023-04-24T07:29:02;1.03;;;0.70;;
15385;SDS011;7791;47.246;9.648;2023-04-24T07:31:36;1.20;;;0.70;;
15385;SDS011;7791;47.246;9.648;2023-04-24T07:34:12;1.07;;;0.60;;
15385;SDS011;7791;47.246;9.648;2023-04-24T07:36:38;3.60;;;0.83;;
15385;SDS011;7791;47.246;9.648;2023-04-24T07:39:11;1.30;;;0.80;;
15385;SDS011;7791;47.246;9.648;2023-04-24T07:41:44;1.27;;;0.67;;
15385;SDS011;7791;47.246;9.648;2023-04-24T07:44:21;1.27;;;0.53;;
15385;SDS011;7791;47.246;9.648;2023-04-24T07:46:56;2.00;;;0.70;;
15385;SDS011;7791;47.246;9.648;2023-04-24T07:49:30;1.30;;;0.80;;
15385;SDS011;7791;47.246;9.648;2023-04-24T07:52:06;0.87;;;0.40;;
15385;SDS011;7791;47.246;9.648;2023-04-24T07:54:55;1.20;;;0.77;;
15385;SDS011;7791;47.246;9.648;2023-04-24T07:57:32;1.33;;;0.40;;
15385;SDS011;7791;47.246;9.648;2023-04-24T08:00:03;0.57;;;0.50;;
15385;SDS011;7791;47.246;9.648;2023-04-24T08:05:24;1.03;;;0.50;;
15385;SDS011;7791;47.246;9.648;2023-04-24T08:07:54;1.93;;;0.50;;
15385;SDS011;7791;47.246;9.648;2023-04-24T08:10:27;1.10;;;0.40;;
15385;SDS011;7791;47.246;9.648;2023-04-24T08:13:05;1.43;;;1.00;;
15385;SDS011;7791;47.246;9.648;2023-04-24T08:15:35;1.10;;;0.83;;
15385;SDS011;7791;47.246;9.648;2023-04-24T08:21:13;0.90;;;0.50;;
15385;SDS011;7791;47.246;9.648;2023-04-24T08:23:47;0.73;;;0.47;;
15385;SDS011;7791;47.246;9.648;2023-04-24T08:26:23;1.80;;;0.80;;
15385;SDS011;7791;47.246;9.648;2023-04-24T08:28:53;0.80;;;0.70;;
15385;SDS011;7791;47.246;9.648;2023-04-24T08:31:23;0.97;;;0.70;;
15385;SDS011;7791;47.246;9.648;2023-04-24T08:33:58;1.33;;;0.70;;
15385;SDS011;7791;47.246;9.648;2023-04-24T08:36:33;0.90;;;0.77;;
15385;SDS011;7791;47.246;9.648;2023-04-24T08:41:52;1.33;;;0.90;;
15385;SDS011;7791;47.246;9.648;2023-04-24T08:44:18;0.93;;;0.60;;
15385;SDS011;7791;47.246;9.648;2023-04-24T08:46:47;0.93;;;0.57;;
15385;SDS011;7791;47.246;9.648;2023-04-24T08:49:17;0.83;;;0.60;;
15385;SDS011;7791;47.246;9.648;2023-04-24T08:51:52;0.67;;;0.50;;
15385;SDS011;7791;47.246;9.648;2023-04-24T08:54:25;1.83;;;0.60;;
15385;SDS011;7791;47.246;9.648;2023-04-24T08:59:45;2.07;;;1.13;;
15385;SDS011;7791;47.246;9.648;2023-04-24T09:02:30;1.27;;;0.50;;
15385;SDS011;7791;47.246;9.648;2023-04-24T09:05:15;6.30;;;2.83;;
15385;SDS011;7791;47.246;9.648;2023-04-24T09:07:57;1.90;;;1.13;;
15385;SDS011;7791;47.246;9.648;2023-04-24T09:10:32;3.53;;;0.80;;
15385;SDS011;7791;47.246;9.648;2023-04-24T09:13:09;2.70;;;1.03;;
15385;SDS011;7791;47.246;9.648;2023-04-24T09:15:51;1.53;;;0.90;;
15385;SDS011;7791;47.246;9.648;2023-04-24T09:18:25;4.53;;;2.23;;
15385;SDS011;7791;47.246;9.648;2023-04-24T09:21:07;0.70;;;0.70;;
15385;SDS011;7791;47.246;9.648;2023-04-24T09:23:48;1.30;;;0.60;;
15385;SDS011;7791;47.246;9.648;2023-04-24T09:26:33;3.37;;;1.10;;
15385;SDS011;7791;47.246;9.648;2023-04-24T09:29:13;1.73;;;0.73;;
15385;SDS011;7791;47.246;9.648;2023-04-24T09:31:54;1.00;;;0.60;;
15385;SDS011;7791;47.246;9.648;2023-04-24T09:34:28;1.60;;;0.60;;
15385;SDS011;7791;47.246;9.648;2023-04-24T09:36:57;2.40;;;0.50;;
15385;SDS011;7791;47.246;9.648;2023-04-24T09:39:24;2.10;;;0.77;;
15385;SDS011;7791;47.246;9.648;2023-04-24T09:41:56;1.43;;;0.60;;
15385;SDS011;7791;47.246;9.648;2023-04-24T09:44:43;1.23;;;0.50;;
15385;SDS011;7791;47.246;9.648;2023-04-24T09:47:31;0.90;;;0.60;;
15385;SDS011;7791;47.246;9.648;2023-04-24T09:50:10;2.77;;;0.60;;
15385;SDS011;7791;47.246;9.648;2023-04-24T09:52:44;1.23;;;0.63;;
15385;SDS011;7791;47.246;9.648;2023-04-24T09:55:26;1.03;;;0.60;;
15385;SDS011;7791;47.246;9.648;2023-04-24T09:58:03;3.47;;;0.60;;
15385;SDS011;7791;47.246;9.648;2023-04-24T10:00:36;3.40;;;0.87;;
15385;SDS011;7791;47.246;9.648;2023-04-24T10:03:08;1.47;;;0.70;;
15385;SDS011;7791;47.246;9.648;2023-04-24T10:05:38;1.03;;;0.67;;
15385;SDS011;7791;47.246;9.648;2023-04-24T10:08:05;1.73;;;0.50;;
15385;SDS011;7791;47.246;9.648;2023-04-24T10:10:48;1.07;;;0.70;;
15385;SDS011;7791;47.246;9.648;2023-04-24T10:13:29;2.13;;;0.80;;
15385;SDS011;7791;47.246;9.648;2023-04-24T10:16:02;1.48;;;0.65;;
15385;SDS011;7791;47.246;9.648;2023-04-24T10:18:46;1.15;;;0.60;;
15385;SDS011;7791;47.246;9.648;2023-04-24T10:21:20;1.67;;;0.75;;
15385;SDS011;7791;47.246;9.648;2023-04-24T10:26:33;1.83;;;0.88;;
15385;SDS011;7791;47.246;9.648;2023-04-24T10:29:19;1.60;;;0.70;;
15385;SDS011;7791;47.246;9.648;2023-04-24T10:32:01;2.83;;;1.07;;
15385;SDS011;7791;47.246;9.648;2023-04-24T11:12:26;1.97;;;1.17;;
15385;SDS011;7791;47.246;9.648;2023-04-24T11:43:33;15.23;;;8.00;;
15385;SDS011;7791;47.246;9.648;2023-04-24T11:46:02;4.43;;;1.47;;
15385;SDS011;7791;47.246;9.648;2023-04-24T11:48:34;3.50;;;1.30;;
15385;SDS011;7791;47.246;9.648;2023-04-24T11:51:11;1.90;;;1.23;;
15385;SDS011;7791;47.246;9.648;2023-04-24T11:53:45;1.23;;;1.10;;
15385;SDS011;7791;47.246;9.648;2023-04-24T11:59:09;4.40;;;2.87;;
15385;SDS011;7791;47.246;9.648;2023-04-24T12:01:42;5.83;;;1.67;;
15385;SDS011;7791;47.246;9.648;2023-04-24T12:04:16;3.00;;;2.00;;
15385;SDS011;7791;47.246;9.648;2023-04-24T12:09:41;3.27;;;1.30;;
15385;SDS011;7791;47.246;9.648;2023-04-24T12:12:27;3.33;;;1.30;;
15385;SDS011;7791;47.246;9.648;2023-04-24T12:15:06;1.87;;;1.10;;
15385;SDS011;7791;47.246;9.648;2023-04-24T12:17:42;3.50;;;1.33;;
15385;SDS011;7791;47.246;9.648;2023-04-24T12:20:28;5.70;;;1.43;;
15385;SDS011;7791;47.246;9.648;2023-04-24T12:26:05;2.43;;;1.20;;
15385;SDS011;7791;47.246;9.648;2023-04-24T12:28:42;3.77;;;1.37;;
15385;SDS011;7791;47.246;9.648;2023-04-24T12:31:15;4.93;;;1.20;;
15385;SDS011;7791;47.246;9.648;2023-04-24T12:33:50;2.90;;;1.40;;
15385;SDS011;7791;47.246;9.648;2023-04-24T12:36:20;2.03;;;1.00;;
15385;SDS011;7791;47.246;9.648;2023-04-24T12:38:52;1.33;;;1.10;;
15385;SDS011;7791;47.246;9.648;2023-04-24T12:41:30;1.43;;;1.00;;
15385;SDS011;7791;47.246;9.648;2023-04-24T12:44:01;3.73;;;1.00;;
15385;SDS011;7791;47.246;9.648;2023-04-24T12:46:48;1.93;;;1.20;;
15385;SDS011;7791;47.246;9.648;2023-04-24T13:02:32;1.00;;;0.87;;
15385;SDS011;7791;47.246;9.648;2023-04-24T13:33:18;3.17;;;1.45;;
15385;SDS011;7791;47.246;9.648;2023-04-24T13:35:50;4.28;;;1.52;;
15385;SDS011;7791;47.246;9.648;2023-04-24T13:44:25;2.90;;;1.30;;
15385;SDS011;7791;47.246;9.648;2023-04-24T13:47:38;2.60;;;1.20;;
15385;SDS011;7791;47.246;9.648;2023-04-24T13:49:49;4.93;;;1.30;;
15385;SDS011;7791;47.246;9.648;2023-04-24T13:52:24;2.33;;;1.10;;
15385;SDS011;7791;47.246;9.648;2023-04-24T13:54:54;2.17;;;1.13;;
15385;SDS011;7791;47.246;9.648;2023-04-24T13:57:30;1.47;;;1.10;;
15385;SDS011;7791;47.246;9.648;2023-04-24T14:00:23;3.13;;;1.40;;
15385;SDS011;7791;47.246;9.648;2023-04-24T14:02:52;3.27;;;1.30;;
15385;SDS011;7791;47.246;9.648;2023-04-24T14:05:25;3.27;;;1.30;;
15385;SDS011;7791;47.246;9.648;2023-04-24T14:08:01;3.50;;;1.77;;
15385;SDS011;7791;47.246;9.648;2023-04-24T14:10:45;2.20;;;1.40;;
15385;SDS011;7791;47.246;9.648;2023-04-24T14:13:22;5.77;;;2.60;;
15385;SDS011;7791;47.246;9.648;2023-04-24T14:16:09;4.07;;;2.27;;
15385;SDS011;7791;47.246;9.648;2023-04-24T14:18:44;3.33;;;1.57;;
15385;SDS011;7791;47.246;9.648;2023-04-24T14:21:13;1.73;;;1.30;;
15385;SDS011;7791;47.246;9.648;2023-04-24T14:23:39;2.77;;;1.27;;
15385;SDS011;7791;47.246;9.648;2023-04-24T14:28:59;2.40;;;1.60;;
15385;SDS011;7791;47.246;9.648;2023-04-24T14:31:37;2.47;;;1.40;;
15385;SDS011;7791;47.246;9.648;2023-04-24T14:34:10;1.60;;;1.00;;
15385;SDS011;7791;47.246;9.648;2023-04-24T14:36:43;3.43;;;1.23;;
15385;SDS011;7791;47.246;9.648;2023-04-24T14:39:15;1.90;;;1.07;;
15385;SDS011;7791;47.246;9.648;2023-04-24T14:41:52;1.57;;;0.90;;
15385;SDS011;7791;47.246;9.648;2023-04-24T14:44:28;1.20;;;1.07;;
15385;SDS011;7791;47.246;9.648;2023-04-24T14:47:02;3.00;;;1.10;;
15385;SDS011;7791;47.246;9.648;2023-04-24T14:49:46;2.00;;;0.90;;
15385;SDS011;7791;47.246;9.648;2023-04-24T14:52:21;1.77;;;0.90;;
15385;SDS011;7791;47.246;9.648;2023-04-24T14:55:03;1.73;;;1.10;;
15385;SDS011;7791;47.246;9.648;2023-04-24T15:00:13;1.07;;;0.70;;
15385;SDS011;7791;47.246;9.648;2023-04-24T15:02:46;1.27;;;0.90;;
15385;SDS011;7791;47.246;9.648;2023-04-24T15:05:16;1.00;;;0.90;;
15385;SDS011;7791;47.246;9.648;2023-04-24T15:07:46;4.60;;;2.40;;
15385;SDS011;7791;47.246;9.648;2023-04-24T15:13:14;4.50;;;1.00;;
15385;SDS011;7791;47.246;9.648;2023-04-24T15:15:48;1.80;;;1.20;;
15385;SDS011;7791;47.246;9.648;2023-04-24T15:18:20;1.67;;;0.87;;
15385;SDS011;7791;47.246;9.648;2023-04-24T15:20:48;4.53;;;1.13;;
15385;SDS011;7791;47.246;9.648;2023-04-24T15:23:29;1.90;;;1.07;;
15385;SDS011;7791;47.246;9.648;2023-04-24T15:26:02;3.90;;;1.00;;
15385;SDS011;7791;47.246;9.648;2023-04-24T15:28:42;2.40;;;0.90;;
15385;SDS011;7791;47.246;9.648;2023-04-24T15:31:13;1.60;;;0.93;;
15385;SDS011;7791;47.246;9.648;2023-04-24T15:33:45;3.17;;;1.10;;
15385;SDS011;7791;47.246;9.648;2023-04-24T15:36:15;1.60;;;1.00;;
15385;SDS011;7791;47.246;9.648;2023-04-24T15:39:04;3.67;;;1.10;;
15385;SDS011;7791;47.246;9.648;2023-04-24T15:41:32;1.90;;;1.10;;
15385;SDS011;7791;47.246;9.648;2023-04-24T15:44:07;2.57;;;1.13;;
15385;SDS011;7791;47.246;9.648;2023-04-24T15:46:37;3.93;;;1.10;;
15385;SDS011;7791;47.246;9.648;2023-04-24T15:49:09;4.03;;;1.13;;
15385;SDS011;7791;47.246;9.648;2023-04-24T15:51:39;2.20;;;1.07;;
15385;SDS011;7791;47.246;9.648;2023-04-24T15:54:08;3.97;;;1.30;;
15385;SDS011;7791;47.246;9.648;2023-04-24T15:56:39;3.70;;;1.23;;
15385;SDS011;7791;47.246;9.648;2023-04-24T15:59:18;2.80;;;1.20;;
15385;SDS011;7791;47.246;9.648;2023-04-24T16:01:51;2.47;;;1.23;;
15385;SDS011;7791;47.246;9.648;2023-04-24T16:07:06;3.37;;;1.37;;
15385;SDS011;7791;47.246;9.648;2023-04-24T16:09:51;2.80;;;1.10;;
15385;SDS011;7791;47.246;9.648;2023-04-24T16:12:31;1.77;;;1.10;;
15385;SDS011;7791;47.246;9.648;2023-04-24T16:15:01;1.63;;;1.20;;
15385;SDS011;7791;47.246;9.648;2023-04-24T16:17:31;3.13;;;1.53;;
15385;SDS011;7791;47.246;9.648;2023-04-24T16:20:07;2.63;;;1.20;;
15385;SDS011;7791;47.246;9.648;2023-04-24T16:22:45;3.10;;;1.23;;
15385;SDS011;7791;47.246;9.648;2023-04-24T16:28:09;2.13;;;1.40;;
15385;SDS011;7791;47.246;9.648;2023-04-24T16:30:38;4.33;;;1.30;;
15385;SDS011;7791;47.246;9.648;2023-04-24T16:33:23;1.47;;;1.23;;
15385;SDS011;7791;47.246;9.648;2023-04-24T16:36:00;2.03;;;1.27;;
15385;SDS011;7791;47.246;9.648;2023-04-24T16:38:38;3.60;;;1.20;;
15385;SDS011;7791;47.246;9.648;2023-04-24T16:41:10;1.90;;;1.47;;
15385;SDS011;7791;47.246;9.648;2023-04-24T16:43:50;2.30;;;0.93;;
15385;SDS011;7791;47.246;9.648;2023-04-24T16:46:30;2.03;;;1.17;;
15385;SDS011;7791;47.246;9.648;2023-04-24T16:49:02;4.77;;;1.37;;
15385;SDS011;7791;47.246;9.648;2023-04-24T16:51:36;2.17;;;1.10;;
15385;SDS011;7791;47.246;9.648;2023-04-24T16:54:09;1.93;;;1.27;;
15385;SDS011;7791;47.246;9.648;2023-04-24T16:57:04;1.70;;;1.20;;
15385;SDS011;7791;47.246;9.648;2023-04-24T16:59:32;3.37;;;1.40;;
15385;SDS011;7791;47.246;9.648;2023-04-24T17:02:08;4.17;;;1.30;;
15385;SDS011;7791;47.246;9.648;2023-04-24T17:04:37;4.47;;;1.63;;
15385;SDS011;7791;47.246;9.648;2023-04-24T17:07:17;4.67;;;1.60;;
15385;SDS011;7791;47.246;9.648;2023-04-24T17:09:47;1.80;;;1.27;;
15385;SDS011;7791;47.246;9.648;2023-04-24T17:12:26;2.83;;;1.70;;
15385;SDS011;7791;47.246;9.648;2023-04-24T17:14:55;2.57;;;1.40;;
15385;SDS011;7791;47.246;9.648;2023-04-24T17:17:26;1.83;;;1.30;;
15385;SDS011;7791;47.246;9.648;2023-04-24T17:19:51;2.63;;;1.30;;
15385;SDS011;7791;47.246;9.648;2023-04-24T17:22:23;1.20;;;1.10;;
15385;SDS011;7791;47.246;9.648;2023-04-24T17:25:15;1.77;;;1.20;;
15385;SDS011;7791;47.246;9.648;2023-04-24T17:27:49;2.90;;;1.60;;
15385;SDS011;7791;47.246;9.648;2023-04-24T17:30:24;2.10;;;1.60;;
15385;SDS011;7791;47.246;9.648;2023-04-24T17:32:55;3.00;;;1.40;;
15385;SDS011;7791;47.246;9.648;2023-04-24T17:35:33;5.03;;;1.83;;
15385;SDS011;7791;47.246;9.648;2023-04-24T17:38:12;4.33;;;2.13;;
15385;SDS011;7791;47.246;9.648;2023-04-24T17:41:00;2.07;;;1.43;;
15385;SDS011;7791;47.246;9.648;2023-04-24T17:43:40;3.67;;;2.20;;
15385;SDS011;7791;47.246;9.648;2023-04-24T17:46:11;6.90;;;2.30;;
15385;SDS011;7791;47.246;9.648;2023-04-24T17:48:55;6.37;;;2.13;;
15385;SDS011;7791;47.246;9.648;2023-04-24T17:51:36;2.70;;;2.00;;
15385;SDS011;7791;47.246;9.648;2023-04-24T17:54:16;3.87;;;2.00;;
15385;SDS011;7791;47.246;9.648;2023-04-24T17:56:54;4.43;;;1.90;;
15385;SDS011;7791;47.246;9.648;2023-04-24T17:59:22;4.37;;;2.00;;
15385;SDS011;7791;47.246;9.648;2023-04-24T18:02:05;3.23;;;1.70;;
15385;SDS011;7791;47.246;9.648;2023-04-24T18:07:18;4.93;;;3.10;;
15385;SDS011;7791;47.246;9.648;2023-04-24T18:12:39;7.30;;;3.40;;
15385;SDS011;7791;47.246;9.648;2023-04-24T18:15:24;6.17;;;1.97;;
15385;SDS011;7791;47.246;9.648;2023-04-24T18:18:01;4.37;;;1.90;;
15385;SDS011;7791;47.246;9.648;2023-04-24T18:20:32;3.97;;;2.40;;
15385;SDS011;7791;47.246;9.648;2023-04-24T18:23:14;5.93;;;3.03;;
15385;SDS011;7791;47.246;9.648;2023-04-24T18:25:49;5.00;;;2.60;;
15385;SDS011;7791;47.246;9.648;2023-04-24T18:28:19;4.07;;;3.10;;
15385;SDS011;7791;47.246;9.648;2023-04-24T18:30:59;5.97;;;3.23;;
15385;SDS011;7791;47.246;9.648;2023-04-24T18:33:36;3.53;;;2.97;;
15385;SDS011;7791;47.246;9.648;2023-04-24T18:36:14;4.20;;;2.97;;
15385;SDS011;7791;47.246;9.648;2023-04-24T18:38:45;5.10;;;2.83;;
15385;SDS011;7791;47.246;9.648;2023-04-24T18:44:10;7.50;;;3.43;;
15385;SDS011;7791;47.246;9.648;2023-04-24T18:46:40;8.73;;;4.67;;
15385;SDS011;7791;47.246;9.648;2023-04-24T18:49:06;7.77;;;4.03;;
15385;SDS011;7791;47.246;9.648;2023-04-24T18:51:34;9.43;;;3.83;;
15385;SDS011;7791;47.246;9.648;2023-04-24T18:54:02;5.00;;;3.53;;
15385;SDS011;7791;47.246;9.648;2023-04-24T18:56:41;4.37;;;3.17;;
15385;SDS011;7791;47.246;9.648;2023-04-24T18:59:22;4.90;;;3.03;;
15385;SDS011;7791;47.246;9.648;2023-04-24T19:02:10;4.90;;;3.10;;
15385;SDS011;7791;47.246;9.648;2023-04-24T19:04:46;4.97;;;3.10;;
15385;SDS011;7791;47.246;9.648;2023-04-24T19:07:22;5.43;;;3.07;;
15385;SDS011;7791;47.246;9.648;2023-04-24T19:10:02;5.70;;;3.23;;
15385;SDS011;7791;47.246;9.648;2023-04-24T19:12:46;6.63;;;3.00;;
15385;SDS011;7791;47.246;9.648;2023-04-24T19:15:21;6.10;;;3.27;;
15385;SDS011;7791;47.246;9.648;2023-04-24T19:17:55;6.87;;;3.17;;